createdAt,value
2023-04-17T00:01:07.963Z,3.00
2023-04-17T00:03:35.324Z,2.30
2023-04-17T00:06:03.495Z,2.78
2023-04-17T00:08:31.280Z,2.65
2023-04-17T00:11:07.227Z,2.60
2023-04-17T00:13:36.822Z,3.22
2023-04-17T00:16:04.215Z,2.63
2023-04-17T00:18:31.558Z,2.45
2023-04-17T00:20:58.815Z,2.75
2023-04-17T00:23:26.184Z,2.65
2023-04-17T00:25:53.422Z,2.85
2023-04-17T00:28:20.733Z,2.97
2023-04-17T00:30:48.201Z,3.17
2023-04-17T00:33:15.815Z,3.35
2023-04-17T00:35:43.168Z,3.00
2023-04-17T00:38:10.852Z,3.00
2023-04-17T00:40:38.099Z,2.95
2023-04-17T00:43:07.897Z,3.22
2023-04-17T00:45:35.629Z,3.25
2023-04-17T00:48:04.848Z,3.40
2023-04-17T00:50:33.049Z,3.05
2023-04-17T00:53:00.859Z,3.50
2023-04-17T00:55:29.087Z,3.22
2023-04-17T00:57:56.898Z,3.53
2023-04-17T01:00:24.704Z,3.22
2023-04-17T01:02:52.511Z,3.25
2023-04-17T01:05:20.648Z,3.20
2023-04-17T01:07:48.340Z,3.13
2023-04-17T01:10:15.743Z,3.83
2023-04-17T01:12:46.697Z,3.25
2023-04-17T01:15:14.142Z,3.47
2023-04-17T01:17:41.511Z,3.50
2023-04-17T01:20:10.839Z,4.15
2023-04-17T01:22:38.172Z,3.70
2023-04-17T01:25:06.654Z,3.75
2023-04-17T01:27:36.815Z,3.97
2023-04-17T01:30:04.430Z,4.07
2023-04-17T01:32:36.579Z,3.90
2023-04-17T01:35:04.141Z,4.15
2023-04-17T01:37:31.509Z,4.28
2023-04-17T01:39:59.270Z,4.05
2023-04-17T01:42:26.895Z,3.80
2023-04-17T01:44:54.161Z,4.15
2023-04-17T01:47:21.417Z,4.30
2023-04-17T01:49:48.666Z,4.00
2023-04-17T01:52:16.012Z,3.80
2023-04-17T01:54:43.473Z,4.00
2023-04-17T01:57:10.956Z,4.22
2023-04-17T01:59:38.219Z,4.25
2023-04-17T02:02:05.872Z,4.53
2023-04-17T02:04:33.286Z,4.60
2023-04-17T02:07:00.647Z,4.80
2023-04-17T02:09:27.912Z,4.80
2023-04-17T02:11:56.250Z,4.30
2023-04-17T02:14:23.594Z,4.85
2023-04-17T02:16:50.961Z,5.05
2023-04-17T02:19:18.185Z,4.38
2023-04-17T02:21:45.648Z,4.70
2023-04-17T02:24:12.957Z,4.60
2023-04-17T02:26:40.677Z,4.70
2023-04-17T02:29:07.968Z,5.05
2023-04-17T02:31:36.747Z,4.82
2023-04-17T02:34:04.410Z,4.97
2023-04-17T02:36:32.201Z,4.32
2023-04-17T02:38:59.587Z,5.03
2023-04-17T02:41:26.799Z,4.70
2023-04-17T02:43:54.359Z,5.22
2023-04-17T02:46:21.650Z,5.53
2023-04-17T02:48:48.942Z,5.20
2023-04-17T02:51:16.238Z,5.35
2023-04-17T02:53:43.562Z,5.82
2023-04-17T02:56:10.874Z,5.88
2023-04-17T02:58:39.895Z,5.80
2023-04-17T03:01:09.028Z,5.88
2023-04-17T03:03:41.376Z,5.53
2023-04-17T03:06:11.782Z,6.47
2023-04-17T03:08:39.086Z,6.47
2023-04-17T03:11:06.645Z,6.55
2023-04-17T03:13:36.498Z,6.78
2023-04-17T03:16:04.795Z,7.07
2023-04-17T03:18:35.896Z,7.47
2023-04-17T03:21:03.519Z,7.57
2023-04-17T03:23:30.790Z,7.00
2023-04-17T03:25:58.564Z,7.03
2023-04-17T03:28:26.124Z,7.32
2023-04-17T03:30:54.936Z,7.50
2023-04-17T03:33:22.637Z,6.93
2023-04-17T03:35:49.944Z,7.00
2023-04-17T03:38:17.808Z,7.32
2023-04-17T03:40:45.288Z,6.93
2023-04-17T03:43:12.933Z,7.97
2023-04-17T03:45:40.247Z,7.55
2023-04-17T03:48:07.616Z,6.97
2023-04-17T03:50:36.128Z,7.53
2023-04-17T03:53:03.472Z,7.07
2023-04-17T03:55:31.692Z,6.97
2023-04-17T03:57:59.259Z,7.68
2023-04-17T04:00:31.679Z,7.45
2023-04-17T04:03:04.459Z,7.70
2023-04-17T04:05:38.608Z,8.15
2023-04-17T04:08:07.493Z,8.05
2023-04-17T04:10:44.288Z,7.72
2023-04-17T04:13:14.043Z,7.90
2023-04-17T04:15:44.519Z,7.95
2023-04-17T04:18:12.608Z,8.40
2023-04-17T04:20:39.918Z,8.05
2023-04-17T04:23:16.653Z,8.90
2023-04-17T04:25:45.065Z,8.25
2023-04-17T04:28:24.025Z,8.60
2023-04-17T04:30:53.007Z,9.40
2023-04-17T04:33:22.002Z,9.10
2023-04-17T04:35:49.489Z,9.32
2023-04-17T04:38:17.691Z,9.43
2023-04-17T04:40:49.948Z,10.75
2023-04-17T04:45:47.893Z,10.93
2023-04-17T04:48:15.489Z,11.75
2023-04-17T04:50:42.832Z,10.68
2023-04-17T04:53:10.440Z,12.13
2023-04-17T04:55:49.194Z,12.63
2023-04-17T04:58:16.429Z,14.70
2023-04-17T05:00:45.575Z,14.05
2023-04-17T05:03:19.597Z,13.65
2023-04-17T05:05:48.235Z,14.85
2023-04-17T05:08:17.500Z,14.55
2023-04-17T05:10:53.867Z,15.10
2023-04-17T05:13:21.161Z,15.00
2023-04-17T05:15:49.191Z,14.30
2023-04-17T05:18:19.226Z,15.77
2023-04-17T05:20:46.798Z,15.35
2023-04-17T05:23:14.161Z,15.55
2023-04-17T05:25:41.517Z,15.55
2023-04-17T05:28:09.200Z,16.33
2023-04-17T05:30:36.665Z,15.95
2023-04-17T05:33:29.810Z,15.75
2023-04-17T05:36:01.166Z,16.48
2023-04-17T05:38:32.165Z,15.48
2023-04-17T05:40:59.744Z,16.17
2023-04-17T05:43:27.056Z,16.50
2023-04-17T05:45:55.076Z,16.55
2023-04-17T05:48:22.637Z,16.38
2023-04-17T05:50:51.792Z,16.05
2023-04-17T05:53:19.343Z,16.77
2023-04-17T05:55:50.890Z,17.33
2023-04-17T05:58:23.702Z,17.00
2023-04-17T06:00:54.720Z,18.42
2023-04-17T06:03:22.314Z,17.40
2023-04-17T06:05:57.256Z,17.45
2023-04-17T06:08:25.525Z,17.70
2023-04-17T06:10:53.196Z,17.85
2023-04-17T06:13:21.270Z,18.70
2023-04-17T06:15:51.563Z,17.90
2023-04-17T06:18:19.342Z,17.35
2023-04-17T06:20:46.903Z,18.35
2023-04-17T06:23:14.191Z,19.83
2023-04-17T06:25:42.696Z,19.55
2023-04-17T06:28:10.450Z,18.55
2023-04-17T06:30:38.223Z,18.38
2023-04-17T06:33:06.952Z,19.67
2023-04-17T06:35:36.430Z,19.27
2023-04-17T06:38:15.049Z,18.95
2023-04-17T06:40:44.209Z,19.30
2023-04-17T06:43:12.214Z,20.08
2023-04-17T06:45:43.089Z,20.45
2023-04-17T06:48:10.602Z,21.58
2023-04-17T06:50:39.518Z,21.02
2023-04-17T06:53:07.354Z,22.38
2023-04-17T06:55:34.780Z,24.55
2023-04-17T06:58:03.082Z,23.95
2023-04-17T07:00:30.473Z,25.35
2023-04-17T07:02:57.994Z,25.25
2023-04-17T07:05:25.475Z,24.75
2023-04-17T07:07:54.475Z,24.65
2023-04-17T07:10:21.760Z,24.40
2023-04-17T07:12:49.103Z,24.17
2023-04-17T07:15:16.674Z,26.95
2023-04-17T07:17:44.093Z,26.65
2023-04-17T07:20:11.851Z,25.40
2023-04-17T07:22:40.135Z,25.77
2023-04-17T07:25:07.920Z,25.80
2023-04-17T07:27:36.397Z,28.25
2023-04-17T07:30:04.215Z,25.83
2023-04-17T07:32:32.323Z,25.77
2023-04-17T07:34:59.634Z,26.10
2023-04-17T07:37:27.128Z,27.08
2023-04-17T07:39:54.777Z,25.95
2023-04-17T07:42:22.143Z,25.92
2023-04-17T07:44:49.713Z,26.58
2023-04-17T07:47:17.056Z,26.20
2023-04-17T07:49:48.742Z,26.98
2023-04-17T07:52:18.161Z,27.17
2023-04-17T07:54:45.669Z,27.52
2023-04-17T07:57:14.958Z,26.60
2023-04-17T07:59:42.326Z,29.57
2023-04-17T08:02:10.038Z,28.30
2023-04-17T08:04:40.337Z,27.30
2023-04-17T08:07:10.658Z,27.92
2023-04-17T08:09:38.635Z,30.20
2023-04-17T08:12:06.420Z,26.85
2023-04-17T08:14:33.804Z,31.08
2023-04-17T08:17:01.893Z,29.13
2023-04-17T08:19:30.006Z,28.02
2023-04-17T08:22:04.804Z,29.70
2023-04-17T08:24:32.100Z,27.88
2023-04-17T08:26:59.458Z,28.98
2023-04-17T08:29:26.991Z,28.85
2023-04-17T08:32:10.357Z,26.75
2023-04-17T08:34:40.648Z,26.30
2023-04-17T08:37:07.928Z,28.33
2023-04-17T08:39:35.407Z,27.90
2023-04-17T08:42:07.964Z,28.00
2023-04-17T08:44:35.853Z,27.52
2023-04-17T08:47:04.657Z,28.17
2023-04-17T08:49:35.916Z,29.85
2023-04-17T08:52:04.550Z,29.25
2023-04-17T08:54:33.524Z,32.60
2023-04-17T08:57:04.968Z,31.33
2023-04-17T08:59:32.541Z,31.90
2023-04-17T09:02:07.584Z,32.10
2023-04-17T09:04:43.156Z,32.90
2023-04-17T09:07:12.335Z,33.47
2023-04-17T09:09:56.401Z,32.30
2023-04-17T09:12:25.454Z,33.42
2023-04-17T09:14:53.331Z,32.70
2023-04-17T09:17:21.572Z,35.55
2023-04-17T09:20:12.386Z,34.40
2023-04-17T09:22:40.616Z,32.60
2023-04-17T09:25:18.713Z,33.75
2023-04-17T09:27:46.306Z,34.95
2023-04-17T09:30:13.845Z,33.58
2023-04-17T09:32:41.260Z,33.35
2023-04-17T09:35:08.958Z,35.08
2023-04-17T09:37:49.634Z,34.08
2023-04-17T09:40:18.817Z,34.70
2023-04-17T09:43:00.650Z,34.28
2023-04-17T09:45:33.455Z,34.25
2023-04-17T09:48:01.326Z,32.70
2023-04-17T09:50:29.049Z,34.50
2023-04-17T09:52:56.628Z,33.33
2023-04-17T09:55:25.084Z,34.13
2023-04-17T09:57:56.157Z,33.83
2023-04-17T10:00:27.102Z,33.83
2023-04-17T10:02:56.154Z,34.38
2023-04-17T10:05:26.081Z,32.20
2023-04-17T10:07:53.376Z,35.20
2023-04-17T10:10:26.045Z,34.83
2023-04-17T10:12:59.383Z,34.03
2023-04-17T10:15:27.320Z,35.00
2023-04-17T10:17:56.687Z,35.10
2023-04-17T10:20:24.008Z,33.88
2023-04-17T10:22:56.522Z,36.72
2023-04-17T10:25:28.392Z,34.47
2023-04-17T10:28:00.503Z,34.45
2023-04-17T10:30:54.712Z,35.88
2023-04-17T10:33:25.060Z,34.28
2023-04-17T10:35:53.533Z,33.05
2023-04-17T10:38:36.444Z,32.90
2023-04-17T10:41:08.940Z,32.88
2023-04-17T10:43:43.624Z,33.85
2023-04-17T10:46:14.883Z,34.08
2023-04-17T10:48:52.320Z,33.53
2023-04-17T10:51:27.175Z,32.50
2023-04-17T10:53:54.694Z,33.97
2023-04-17T10:56:27.039Z,34.13
2023-04-17T10:59:09.015Z,33.05
2023-04-17T11:01:42.831Z,34.30
2023-04-17T11:04:11.406Z,33.00
2023-04-17T11:06:43.040Z,34.88
2023-04-17T11:09:11.050Z,37.17
2023-04-17T11:11:44.115Z,37.03
2023-04-17T11:14:17.743Z,35.10
2023-04-17T11:16:47.037Z,34.53
2023-04-17T11:19:19.153Z,31.63
2023-04-17T11:21:48.243Z,31.33
2023-04-17T11:24:28.566Z,31.40
2023-04-17T11:26:58.324Z,30.17
2023-04-17T11:29:26.396Z,32.47
2023-04-17T11:31:55.522Z,30.23
2023-04-17T11:34:23.641Z,30.95
2023-04-17T11:36:51.398Z,30.63
2023-04-17T11:39:19.964Z,29.92
2023-04-17T11:41:47.413Z,30.13
2023-04-17T11:44:15.631Z,30.25
2023-04-17T11:46:43.126Z,31.38
2023-04-17T11:49:11.787Z,30.45
2023-04-17T11:51:39.387Z,29.40
2023-04-17T11:54:06.654Z,31.67
2023-04-17T11:56:34.229Z,33.70
2023-04-17T11:59:03.772Z,31.70
2023-04-17T12:01:31.415Z,31.13
2023-04-17T12:03:59.394Z,30.88
2023-04-17T12:06:37.326Z,31.13
2023-04-17T12:09:07.069Z,31.05
2023-04-17T12:11:36.249Z,31.48
2023-04-17T12:14:05.453Z,31.30
2023-04-17T12:16:32.737Z,32.20
2023-04-17T12:19:00.298Z,32.55
2023-04-17T12:21:27.721Z,31.08
2023-04-17T12:23:55.261Z,30.98
2023-04-17T12:26:22.500Z,30.42
2023-04-17T12:28:49.835Z,31.08
2023-04-17T12:31:17.316Z,31.80
2023-04-17T12:33:44.738Z,29.33
2023-04-17T12:36:12.093Z,29.17
2023-04-17T12:38:39.478Z,29.42
2023-04-17T12:41:06.887Z,28.67
2023-04-17T12:43:35.808Z,29.20
2023-04-17T12:46:03.338Z,28.40
2023-04-17T12:48:32.838Z,29.20
2023-04-17T12:51:00.497Z,28.73
2023-04-17T12:53:27.790Z,27.70
2023-04-17T12:55:55.060Z,28.45
2023-04-17T12:58:22.375Z,28.42
2023-04-17T13:00:49.671Z,28.50
2023-04-17T13:03:17.086Z,28.15
2023-04-17T13:05:44.566Z,27.40
2023-04-17T13:08:14.830Z,28.52
2023-04-17T13:10:42.587Z,27.63
2023-04-17T13:13:10.275Z,28.67
2023-04-17T13:15:37.653Z,28.88
2023-04-17T13:18:05.404Z,27.67
2023-04-17T13:20:32.730Z,28.38
2023-04-17T13:23:00.077Z,28.92
2023-04-17T13:25:27.854Z,28.40
2023-04-17T13:27:55.695Z,28.17
2023-04-17T13:30:23.045Z,29.90
2023-04-17T13:32:50.466Z,29.10
2023-04-17T13:35:18.061Z,28.10
2023-04-17T13:37:45.329Z,28.15
2023-04-17T13:40:12.997Z,29.15
2023-04-17T13:42:40.488Z,27.83
2023-04-17T13:45:08.358Z,27.45
2023-04-17T13:47:35.669Z,28.40
2023-04-17T13:50:03.496Z,28.23
2023-04-17T13:52:30.791Z,28.75
2023-04-17T13:54:58.016Z,29.70
2023-04-17T13:57:25.280Z,28.75
2023-04-17T13:59:52.619Z,29.48
2023-04-17T14:02:20.087Z,28.65
2023-04-17T14:04:47.906Z,29.90
2023-04-17T14:07:16.601Z,28.42
2023-04-17T14:09:43.918Z,28.88
2023-04-17T14:12:11.213Z,28.45
2023-04-17T14:14:38.441Z,29.40
2023-04-17T14:17:05.944Z,30.05
2023-04-17T14:19:33.239Z,29.20
2023-04-17T14:22:00.530Z,27.58
2023-04-17T14:24:27.821Z,29.55
2023-04-17T14:26:57.757Z,29.98
2023-04-17T14:29:25.246Z,31.63
2023-04-17T14:31:53.374Z,32.75
2023-04-17T14:34:20.850Z,29.90
2023-04-17T14:36:48.767Z,30.50
2023-04-17T14:39:16.161Z,31.50
2023-04-17T14:41:43.570Z,30.83
2023-04-17T14:44:11.156Z,31.77
2023-04-17T14:46:38.734Z,28.45
2023-04-17T14:49:06.044Z,30.90
2023-04-17T14:51:33.298Z,27.90
2023-04-17T14:54:00.605Z,29.15
2023-04-17T14:56:27.892Z,28.70
2023-04-17T14:58:55.284Z,28.60
2023-04-17T15:01:22.546Z,28.33
2023-04-17T15:03:49.916Z,28.42
2023-04-17T15:06:18.780Z,27.95
2023-04-17T15:08:46.271Z,26.35
2023-04-17T15:11:14.118Z,28.20
2023-04-17T15:13:41.336Z,27.83
2023-04-17T15:16:09.259Z,27.95
2023-04-17T15:18:36.763Z,27.67
2023-04-17T15:21:04.081Z,26.58
2023-04-17T15:23:31.657Z,27.92
2023-04-17T15:26:01.157Z,26.98
2023-04-17T15:28:28.511Z,29.98
2023-04-17T15:30:56.592Z,27.30
2023-04-17T15:33:23.908Z,26.30
2023-04-17T15:35:58.901Z,27.70
2023-04-17T15:38:26.853Z,27.85
2023-04-17T15:40:54.513Z,29.35
2023-04-17T15:43:22.022Z,28.85
2023-04-17T15:45:49.510Z,28.23
2023-04-17T15:48:17.037Z,28.58
2023-04-17T15:50:44.322Z,28.75
2023-04-17T15:53:13.181Z,28.70
2023-04-17T15:55:41.251Z,27.88
2023-04-17T15:58:08.744Z,28.63
2023-04-17T16:00:36.009Z,28.27
2023-04-17T16:03:03.643Z,28.30
2023-04-17T16:05:31.192Z,29.33
2023-04-17T16:07:58.418Z,29.63
2023-04-17T16:10:25.634Z,29.27
2023-04-17T16:12:52.977Z,28.92
2023-04-17T16:15:20.359Z,28.10
2023-04-17T16:17:48.888Z,28.48
2023-04-17T16:20:16.507Z,28.95
2023-04-17T16:22:43.904Z,27.42
2023-04-17T16:25:13.988Z,28.25
2023-04-17T16:30:09.520Z,27.25
2023-04-17T16:32:36.874Z,27.52
2023-04-17T16:35:04.434Z,27.95
2023-04-17T16:37:31.649Z,27.52
2023-04-17T16:40:04.408Z,27.25
2023-04-17T16:42:32.428Z,27.27
2023-04-17T16:44:59.984Z,27.13
2023-04-17T16:47:30.383Z,25.58
2023-04-17T16:49:57.703Z,27.52
2023-04-17T16:52:25.153Z,26.70
2023-04-17T16:54:52.483Z,25.27
2023-04-17T16:57:19.782Z,25.02
2023-04-17T16:59:47.004Z,26.27
2023-04-17T17:02:14.312Z,25.70
2023-04-17T17:04:41.773Z,25.90
2023-04-17T17:07:09.252Z,24.00
2023-04-17T17:09:36.627Z,25.30
2023-04-17T17:12:04.171Z,22.73
2023-04-17T17:14:31.467Z,23.05
2023-04-17T17:16:58.891Z,22.02
2023-04-17T17:19:26.134Z,23.30
2023-04-17T17:21:55.284Z,24.13
2023-04-17T17:26:50.715Z,25.02
2023-04-17T17:29:18.092Z,25.77
2023-04-17T17:31:45.448Z,25.70
2023-04-17T17:39:10.484Z,26.63
2023-04-17T17:41:37.956Z,27.67
2023-04-17T17:44:05.248Z,27.42
2023-04-17T17:46:34.347Z,27.02
2023-04-17T17:49:01.677Z,27.98
2023-04-17T17:51:29.073Z,29.67
2023-04-17T17:53:56.309Z,29.80
2023-04-17T17:56:23.735Z,29.27
2023-04-17T17:58:51.186Z,28.77
2023-04-17T18:01:18.501Z,28.13
2023-04-17T18:03:48.749Z,28.52
2023-04-17T18:06:17.132Z,28.63
2023-04-17T18:08:44.480Z,29.02
2023-04-17T18:11:13.747Z,27.13
2023-04-17T18:13:41.023Z,28.03
2023-04-17T18:16:08.629Z,28.58
2023-04-17T18:18:36.132Z,28.40
2023-04-17T18:21:07.424Z,29.55
2023-04-17T18:23:35.514Z,29.27
2023-04-17T18:26:03.936Z,29.83
2023-04-17T18:28:32.756Z,29.88
2023-04-17T18:31:00.119Z,29.35
2023-04-17T18:33:28.974Z,29.15
2023-04-17T18:35:56.544Z,28.20
2023-04-17T18:38:23.879Z,28.25
2023-04-17T18:40:59.435Z,28.60
2023-04-17T18:43:27.686Z,27.83
2023-04-17T18:45:54.977Z,28.75
2023-04-17T18:48:23.765Z,28.80
2023-04-17T18:50:54.610Z,28.02
2023-04-17T18:53:22.350Z,29.80
2023-04-17T18:55:49.706Z,29.13
2023-04-17T18:58:20.198Z,31.23
2023-04-17T19:00:48.078Z,30.20
2023-04-17T19:03:15.398Z,30.45
2023-04-17T19:05:42.683Z,30.50
2023-04-17T19:08:10.025Z,30.67
2023-04-17T19:10:39.924Z,30.85
2023-04-17T19:13:09.849Z,31.05
2023-04-17T19:15:37.387Z,30.27
2023-04-17T19:18:06.603Z,28.00
2023-04-17T19:20:34.265Z,30.70
2023-04-17T19:23:01.989Z,29.58
2023-04-17T19:25:29.594Z,30.83
2023-04-17T19:27:56.822Z,30.30
2023-04-17T19:30:24.242Z,31.42
2023-04-17T19:32:51.664Z,31.13
2023-04-17T19:35:19.086Z,32.53
2023-04-17T19:37:46.544Z,31.88
2023-04-17T19:40:24.505Z,30.15
2023-04-17T19:42:53.159Z,30.15
2023-04-17T19:45:23.285Z,30.95
2023-04-17T19:47:56.240Z,33.00
2023-04-17T19:50:26.455Z,30.83
2023-04-17T19:52:54.353Z,31.50
2023-04-17T19:55:21.822Z,31.25
2023-04-17T19:57:50.414Z,32.10
2023-04-17T20:00:17.888Z,32.40
2023-04-17T20:02:45.376Z,31.80
2023-04-17T20:05:12.697Z,32.47
2023-04-17T20:07:40.037Z,31.75
2023-04-17T20:10:07.694Z,34.03
2023-04-17T20:12:35.197Z,32.33
2023-04-17T20:15:02.537Z,32.38
2023-04-17T20:17:29.952Z,34.00
2023-04-17T20:19:57.242Z,31.85
2023-04-17T20:22:24.526Z,33.35
2023-04-17T20:24:51.853Z,33.13
2023-04-17T20:27:19.197Z,34.60
2023-04-17T20:29:46.802Z,34.45
2023-04-17T20:32:14.124Z,35.20
2023-04-17T20:34:41.392Z,36.50
2023-04-17T20:37:08.764Z,35.05
2023-04-17T20:39:36.114Z,37.55
2023-04-17T20:42:03.400Z,37.85
2023-04-17T20:44:32.057Z,36.28
2023-04-17T20:46:59.455Z,36.22
2023-04-17T20:49:26.693Z,35.45
2023-04-17T20:51:54.163Z,37.78
2023-04-17T20:54:23.133Z,38.80
2023-04-17T20:56:50.526Z,39.17
2023-04-17T20:59:17.785Z,38.38
2023-04-17T21:01:45.075Z,38.42
2023-04-17T21:04:12.665Z,40.17
2023-04-17T21:06:40.428Z,42.20
2023-04-17T21:09:08.785Z,42.95
2023-04-17T21:11:36.048Z,43.75
2023-04-17T21:14:03.818Z,43.63
2023-04-17T21:16:31.364Z,43.00
2023-04-17T21:18:58.733Z,43.83
2023-04-17T21:21:26.858Z,43.20
2023-04-17T21:23:54.143Z,44.78
2023-04-17T21:26:21.919Z,44.95
2023-04-17T21:28:49.120Z,44.40
2023-04-17T21:31:16.536Z,46.00
2023-04-17T21:33:44.014Z,43.72
2023-04-17T21:36:11.426Z,43.50
2023-04-17T21:38:39.271Z,43.13
2023-04-17T21:41:06.539Z,44.33
2023-04-17T21:43:33.903Z,44.97
2023-04-17T21:46:01.345Z,43.00
2023-04-17T21:48:28.726Z,43.08
2023-04-17T21:51:02.401Z,44.22
2023-04-17T21:53:30.359Z,42.28
2023-04-17T21:55:57.766Z,41.78
2023-04-17T21:58:25.073Z,42.65
2023-04-17T22:00:52.414Z,41.38
2023-04-17T22:03:21.193Z,41.85
2023-04-17T22:05:52.701Z,43.03
2023-04-17T22:08:20.026Z,42.88
2023-04-17T22:10:47.283Z,42.70
2023-04-17T22:13:15.929Z,43.97
2023-04-17T22:15:43.991Z,45.55
2023-04-17T22:18:11.213Z,42.03
2023-04-17T22:20:38.514Z,41.97
2023-04-17T22:23:05.913Z,41.28
2023-04-17T22:25:33.217Z,42.35
2023-04-17T22:28:00.495Z,41.45
2023-04-17T22:30:27.749Z,41.20
2023-04-17T22:32:56.505Z,39.75
2023-04-17T22:35:23.851Z,39.03
2023-04-17T22:37:51.144Z,40.30
2023-04-17T22:40:18.548Z,38.70
2023-04-17T22:42:45.996Z,39.58
2023-04-17T22:45:13.203Z,40.17
2023-04-17T22:47:41.153Z,38.10
2023-04-17T22:50:10.823Z,38.28
2023-04-17T22:52:38.116Z,38.78
2023-04-17T22:55:06.487Z,40.13
2023-04-17T22:57:34.135Z,39.17
2023-04-17T23:00:01.550Z,38.60
2023-04-17T23:02:28.974Z,39.22
2023-04-17T23:04:56.393Z,37.67
2023-04-17T23:07:23.821Z,37.75
2023-04-17T23:09:51.047Z,37.65
2023-04-17T23:12:18.365Z,39.30
2023-04-17T23:14:46.120Z,39.65
2023-04-17T23:17:13.367Z,39.28
2023-04-17T23:19:40.783Z,41.00
2023-04-17T23:22:08.202Z,41.00
2023-04-17T23:24:35.643Z,42.33
2023-04-17T23:27:02.958Z,42.22
2023-04-17T23:29:30.408Z,43.22
2023-04-17T23:31:58.881Z,44.65
2023-04-17T23:34:27.569Z,43.30
2023-04-17T23:36:54.955Z,43.42
2023-04-17T23:39:22.442Z,44.40
2023-04-17T23:41:52.310Z,46.45
2023-04-17T23:44:19.630Z,46.83
2023-04-17T23:46:47.017Z,48.97
2023-04-17T23:49:14.362Z,49.05
2023-04-17T23:51:41.764Z,48.75
2023-04-17T23:54:09.025Z,48.17
2023-04-17T23:56:36.298Z,47.65
2023-04-17T23:59:03.559Z,48.00
